Terminal Aerodrome Forecast
Issued by NWS Brownsville, TX

Home | Current Version | Previous Version | Text Only | Print | Product List | Glossary On
Versions: 1 2 3 4 5 6 7 8 9 10 11 12 13 14 15 16 17 18 19 20 21 22
219
FTUS44 KBRO 211735
TAFBRO
TAF
KBRO 211735Z 2118/2218 24011KT P6SM SKC
     FM212300 17008KT P6SM SKC
     FM220500 25010KT P6SM SKC
     FM220900 31014G20KT P6SM SKC
     FM221600 32018G26KT P6SM SKC=

USA.gov is the U.S. government's official web portal to all federal, state and local government web resources and services.